Time;durP1;ratioP1;P1;durP2;ratioP2;P2;SDS_P1;SDS_P2;PMS_P1;PMS_P2;Temp;Humidity;BMP_temperature;BMP_pressure;BME280_temperature;BME280_humidity;BME280_pressure;Samples;Min_cycle;Max_cycle;Signal;HPM_P1;HPM_P2
2023/09/28 00:01:22;;;;;;;17.27;13.65;;;19.20;99.90;;;;;;4883052;29;20048;-76
2023/09/28 00:03:48;;;;;;;15.52;12.82;;;19.40;99.90;;;;;;4867671;29;20049;-76
2023/09/28 00:06:14;;;;;;;16.42;12.07;;;;;;;;;;4883451;29;20048;-76
2023/09/28 00:08:40;;;;;;;16.48;12.90;;;18.10;99.90;;;;;;4883231;29;20060;-77
2023/09/28 00:11:06;;;;;;;16.73;13.75;;;;;;;;;;4883361;29;20070;-77
2023/09/28 00:13:32;;;;;;;18.08;13.10;;;;;;;;;;4899896;29;20122;-76
2023/09/28 00:15:58;;;;;;;16.00;12.80;;;19.30;99.90;;;;;;4882776;29;20104;-76
2023/09/28 00:18:25;;;;;;;21.45;13.15;;;19.20;99.90;;;;;;4867346;29;20053;-76
2023/09/28 00:20:51;;;;;;;15.35;12.82;;;17.80;99.90;;;;;;4883057;29;20052;-76
2023/09/28 00:23:17;;;;;;;16.30;13.13;;;18.30;99.90;;;;;;4882840;29;20143;-76
2023/09/28 00:25:46;;;;;;;15.23;12.57;;;18.10;99.90;;;;;;4882855;29;20049;-77
2023/09/28 00:28:12;;;;;;;15.75;12.35;;;19.30;99.90;;;;;;4882779;29;20052;-76
2023/09/28 00:30:38;;;;;;;18.45;12.80;;;;;;;;;;4866772;29;20401;-76
2023/09/28 00:33:04;;;;;;;13.88;12.30;;;;;;;;;;4882721;29;20053;-77
2023/09/28 00:35:30;;;;;;;14.63;12.15;;;19.30;99.90;;;;;;4882491;29;20044;-76
2023/09/28 00:37:56;;;;;;;15.82;12.00;;;;;;;;;;4899409;29;20051;-76
2023/09/28 00:40:28;;;;;;;14.82;11.40;;;18.90;99.90;;;;;;4882757;29;20048;-76
2023/09/28 00:42:55;;;;;;;15.55;11.82;;;18.20;99.90;;;;;;4882389;29;20457;-76
2023/09/28 00:45:22;;;;;;;16.58;11.77;;;17.40;99.90;;;;;;4882829;29;20069;-77
2023/09/28 00:47:50;;;;;;;13.82;11.23;;;17.90;99.90;;;;;;4882531;29;20083;-77
2023/09/28 00:50:17;;;;;;;14.88;12.20;;;18.30;99.90;;;;;;4882337;29;20059;-77
2023/09/28 00:52:48;;;;;;;16.98;11.38;;;18.90;99.90;;;;;;4882603;29;20044;-77
2023/09/28 00:55:17;;;;;;;14.50;11.40;;;17.00;99.90;;;;;;4882504;29;20436;-77
2023/09/28 00:57:44;;;;;;;14.43;11.13;;;17.10;99.90;;;;;;4882320;29;20053;-77
2023/09/28 01:02:52;;;;;;;14.65;9.80;;;17.90;99.90;;;;;;4882174;29;20048;-76
2023/09/28 01:05:34;;;;;;;16.45;11.32;;;17.20;99.90;;;;;;4882184;29;20497;-76
2023/09/28 01:08:12;;;;;;;13.63;10.60;;;17.10;99.90;;;;;;4881956;29;20076;-76
2023/09/28 01:10:40;;;;;;;14.27;9.90;;;18.90;99.90;;;;;;4882014;29;20044;-77
2023/09/28 01:13:15;;;;;;;15.15;9.82;;;;;;;;;;4881981;29;20620;-77
2023/09/28 01:15:43;;;;;;;15.75;9.93;;;18.50;99.90;;;;;;4881860;29;20080;-77
2023/09/28 01:18:15;;;;;;;12.65;9.82;;;17.20;99.90;;;;;;4898482;29;20131;-77
2023/09/28 01:20:47;;;;;;;;;;;18.00;99.90;;;;;;4882471;29;20041;-77
2023/09/28 01:23:13;;;;;;;12.57;10.02;;;;;;;;;;4882004;29;19923;-77
2023/09/28 01:25:40;;;;;;;13.50;10.27;;;18.50;99.90;;;;;;4881719;29;20056;-77
2023/09/28 01:28:07;;;;;;;15.88;10.07;;;18.50;99.90;;;;;;4881697;29;20056;-77
2023/09/28 01:30:33;;;;;;;13.18;9.75;;;;;;;;;;4881925;29;20052;-77
2023/09/28 01:32:59;;;;;;;13.57;10.23;;;18.70;99.90;;;;;;4881505;29;20489;-77
2023/09/28 01:35:25;;;;;;;13.45;10.43;;;;;;;;;;4881771;29;20049;-77
2023/09/28 01:38:09;;;;;;;16.58;10.38;;;16.80;99.90;;;;;;4866002;29;20128;-77
2023/09/28 01:40:36;;;;;;;13.82;10.25;;;19.00;99.90;;;;;;4881299;29;20055;-77
2023/09/28 01:43:01;;;;;;;12.10;9.50;;;17.60;99.90;;;;;;4865481;29;20497;-76
2023/09/28 01:45:28;;;;;;;13.48;10.15;;;;;;;;;;4881437;29;20080;-76
2023/09/28 01:47:54;;;;;;;13.43;9.73;;;16.80;99.90;;;;;;4881363;29;20083;-76
2023/09/28 01:50:20;;;;;;;14.13;10.40;;;;;;;;;;4881452;29;20081;-76
2023/09/28 01:52:46;;;;;;;15.77;9.73;;;;;;;;;;4883258;29;20055;-75
2023/09/28 01:55:12;;;;;;;13.65;10.13;;;17.80;99.90;;;;;;4896292;29;20489;-75
2023/09/28 01:57:37;;;;;;;13.70;9.20;;;16.60;99.90;;;;;;4897002;29;20044;-74
2023/09/28 02:00:13;;;;;;;12.10;9.45;;;18.70;99.90;;;;;;4896480;29;20087;-75
2023/09/28 02:02:40;;;;;;;15.30;9.38;;;;;;;;;;4896479;29;20052;-75
2023/09/28 02:05:06;;;;;;;11.98;9.20;;;;;;;;;;4896424;29;20045;-75
2023/09/28 02:07:34;;;;;;;12.88;8.90;;;18.70;99.90;;;;;;4882634;29;20041;-76
2023/09/28 02:10:00;;;;;;;11.82;8.70;;;18.50;99.90;;;;;;4881360;29;20048;-77
2023/09/28 02:12:27;;;;;;;15.43;9.23;;;18.80;99.90;;;;;;4881360;29;20528;-77
2023/09/28 02:14:55;;;;;;;13.43;8.73;;;18.50;99.90;;;;;;4898430;29;20051;-77
2023/09/28 02:17:20;;;;;;;12.30;8.55;;;16.50;99.90;;;;;;4881442;29;20052;-76
2023/09/28 02:19:47;;;;;;;11.55;7.53;;;17.20;99.90;;;;;;4880966;29;20481;-76
2023/09/28 02:22:14;;;;;;;12.73;8.00;;;;;;;;;;4880919;29;20045;-77
2023/09/28 02:24:39;;;;;;;10.00;7.70;;;18.60;99.90;;;;;;4881069;29;20047;-76
2023/09/28 02:27:06;;;;;;;11.02;7.47;;;;;;;;;;4865875;29;20044;-77
2023/09/28 02:29:31;;;;;;;8.65;7.30;;;16.40;99.90;;;;;;4865948;29;20053;-76
2023/09/28 02:31:57;;;;;;;10.00;7.20;;;;;;;;;;4880914;29;20052;-76
2023/09/28 02:34:24;;;;;;;13.93;6.95;;;;;;;;;;4881048;29;20050;-77
2023/09/28 02:36:50;;;;;;;10.95;7.28;;;18.60;99.90;;;;;;4880868;29;20100;-76
2023/09/28 02:39:16;;;;;;;14.05;6.97;;;16.30;99.90;;;;;;4881118;29;20052;-76
2023/09/28 02:41:42;;;;;;;9.52;7.25;;;;;;;;;;4865587;29;20390;-76
2023/09/28 02:44:08;;;;;;;13.10;7.30;;;18.60;99.90;;;;;;4881132;29;20048;-76
2023/09/28 02:46:33;;;;;;;10.90;6.57;;;17.10;99.90;;;;;;4850035;29;20056;-76
2023/09/28 02:48:59;;;;;;;13.25;6.70;;;16.80;99.90;;;;;;4880818;29;20049;-76
2023/09/28 02:51:25;;;;;;;14.30;6.10;;;;;;;;;;4880992;29;20075;-76
2023/09/28 02:53:51;;;;;;;10.05;6.63;;;18.80;99.90;;;;;;4882978;29;20099;-76
2023/09/28 02:56:17;;;;;;;11.90;6.85;;;18.40;99.90;;;;;;4884288;29;20123;-76
2023/09/28 02:58:45;;;;;;;9.50;6.55;;;;;;;;;;4869267;29;20477;-76
2023/09/28 03:01:11;;;;;;;8.68;6.90;;;16.40;99.90;;;;;;4884610;29;20048;-76
2023/09/28 03:03:37;;;;;;;10.00;7.07;;;18.30;99.90;;;;;;4868811;29;20047;-76
2023/09/28 03:06:04;;;;;;;11.32;6.63;;;;;;;;;;4884269;29;20048;-76
2023/09/28 03:08:31;;;;;;;12.38;6.47;;;;;;;;;;4884407;29;20052;-76
2023/09/28 03:10:58;;;;;;;11.23;5.82;;;18.00;99.90;;;;;;4884066;29;20059;-76
2023/09/28 03:13:25;;;;;;;10.55;6.20;;;17.20;99.90;;;;;;4868992;29;20127;-76
2023/09/28 03:15:51;;;;;;;8.93;5.85;;;18.50;99.90;;;;;;4884016;29;20080;-76
2023/09/28 03:18:17;;;;;;;13.02;6.28;;;;;;;;;;4883753;29;20429;-76
2023/09/28 03:20:44;;;;;;;10.52;6.40;;;;;;;;;;4884017;29;20056;-76
2023/09/28 03:23:11;;;;;;;11.73;6.28;;;17.10;99.90;;;;;;4868743;29;20131;-76
2023/09/28 03:25:37;;;;;;;9.43;5.90;;;16.60;99.90;;;;;;4884223;29;20467;-76
2023/09/28 03:28:04;;;;;;;15.15;6.22;;;;;;;;;;4868394;29;20132;-76
2023/09/28 03:30:30;;;;;;;8.95;6.13;;;;;;;;;;4868755;29;20456;-77
2023/09/28 03:32:56;;;;;;;9.02;6.53;;;17.90;99.90;;;;;;4884107;29;20124;-76
2023/09/28 03:35:23;;;;;;;9.25;5.90;;;;;;;;;;4883577;29;20446;-77
2023/09/28 03:37:54;;;;;;;9.52;6.10;;;17.60;99.90;;;;;;4883703;29;20055;-76
2023/09/28 03:40:20;;;;;;;10.45;6.28;;;18.40;99.90;;;;;;4883864;29;20556;-76
2023/09/28 03:42:50;;;;;;;12.20;6.13;;;17.30;99.90;;;;;;4883558;29;20049;-77
2023/09/28 03:45:20;;;;;;;12.43;6.68;;;18.40;99.90;;;;;;4883955;29;20115;-76
2023/09/28 03:47:48;;;;;;;8.98;6.07;;;18.40;99.90;;;;;;4868008;29;20124;-77
2023/09/28 03:50:14;;;;;;;15.35;6.50;;;16.20;99.90;;;;;;4899184;29;20064;-77
2023/09/28 03:52:41;;;;;;;12.57;6.53;;;17.30;99.90;;;;;;4883341;29;20490;-77
2023/09/28 03:55:12;;;;;;;10.38;6.35;;;17.50;99.90;;;;;;4883421;29;20055;-76
2023/09/28 03:57:38;;;;;;;11.95;5.95;;;17.10;99.90;;;;;;4883625;29;20047;-76
2023/09/28 04:00:12;;;;;;;12.15;7.13;;;18.40;99.90;;;;;;4883323;29;20493;-76
2023/09/28 04:02:38;;;;;;;13.00;6.20;;;18.30;99.90;;;;;;4883270;29;20049;-76
2023/09/28 04:05:05;;;;;;;11.25;6.63;;;18.20;99.90;;;;;;4898986;29;20052;-77
2023/09/28 04:07:31;;;;;;;11.55;6.55;;;17.10;99.90;;;;;;4883158;29;20040;-77
2023/09/28 04:09:57;;;;;;;9.93;6.03;;;;;;;;;;4883416;29;20048;-77
2023/09/28 04:12:23;;;;;;;12.73;6.30;;;17.00;99.90;;;;;;4883170;29;20040;-77
2023/09/28 04:14:49;;;;;;;13.02;6.65;;;;;;;;;;4883339;29;20127;-77
2023/09/28 04:17:15;;;;;;;11.20;6.40;;;;;;;;;;4882729;29;20063;-77
2023/09/28 04:19:42;;;;;;;12.55;6.93;;;;;;;;;;4882938;29;20059;-77
2023/09/28 04:22:08;;;;;;;11.38;6.18;;;;;;;;;;4867643;29;20071;-77
2023/09/28 04:24:33;;;;;;;14.68;6.10;;;17.30;99.90;;;;;;4867587;29;20119;-77
2023/09/28 04:26:59;;;;;;;11.35;6.07;;;17.70;99.90;;;;;;4883018;29;20132;-77
2023/09/28 04:29:26;;;;;;;12.57;6.50;;;;;;;;;;4882897;29;20400;-77
2023/09/28 04:31:52;;;;;;;12.32;6.07;;;18.30;99.90;;;;;;4867264;29;20055;-77
2023/09/28 04:34:18;;;;;;;14.35;6.82;;;17.20;99.90;;;;;;4882608;29;20052;-77
2023/09/28 04:36:45;;;;;;;10.85;5.93;;;18.10;99.90;;;;;;4882598;29;20056;-76
2023/09/28 04:39:14;;;;;;;12.02;5.72;;;17.00;99.90;;;;;;4882858;29;20088;-76
2023/09/28 04:41:41;;;;;;;13.85;5.90;;;;;;;;;;4867151;29;20083;-77
2023/09/28 04:44:07;;;;;;;11.88;5.22;;;;;;;;;;4882845;29;20434;-76
2023/09/28 04:46:33;;;;;;;11.88;5.63;;;;;;;;;;4867001;29;20044;-76
2023/09/28 04:48:59;;;;;;;19.95;5.43;;;;;;;;;;4866982;29;20056;-77
2023/09/28 04:51:25;;;;;;;10.07;5.00;;;16.40;99.90;;;;;;4882527;29;20045;-77
2023/09/28 04:53:51;;;;;;;13.70;4.53;;;;;;;;;;4882622;29;20056;-77
2023/09/28 04:56:18;;;;;;;15.75;4.85;;;17.70;99.90;;;;;;4882320;29;20045;-77
2023/09/28 04:58:45;;;;;;;10.20;3.90;;;;;;;;;;4882459;29;20083;-77
2023/09/28 05:01:11;;;;;;;17.52;4.38;;;17.20;99.90;;;;;;4882552;29;20079;-77
2023/09/28 05:03:37;;;;;;;15.48;3.97;;;16.90;99.90;;;;;;4882466;29;20095;-77
2023/09/28 05:06:04;;;;;;;17.58;3.42;;;17.80;99.90;;;;;;4882285;29;20131;-76
2023/09/28 05:08:31;;;;;;;20.60;3.97;;;;;;;;;;4882125;29;20055;-76
2023/09/28 05:10:57;;;;;;;14.75;3.63;;;;;;;;;;4866520;29;20053;-77
2023/09/28 05:13:32;;;;;;;21.80;3.75;;;17.40;99.90;;;;;;4882703;29;20048;-74
2023/09/28 05:15:57;;;;;;;20.92;3.95;;;16.60;99.90;;;;;;4895691;29;20053;-76
2023/09/28 05:18:23;;;;;;;21.63;3.47;;;15.80;99.90;;;;;;4882127;29;20064;-75
2023/09/28 05:20:50;;;;;;;23.88;4.47;;;;;;;;;;4896977;29;20077;-74
2023/09/28 05:23:16;;;;;;;19.75;3.70;;;;;;;;;;4881512;29;20083;-75
2023/09/28 05:25:43;;;;;;;23.00;4.05;;;16.60;99.90;;;;;;4896706;29;20049;-75
2023/09/28 05:28:09;;;;;;;24.58;3.67;;;;;;;;;;4871637;29;20089;-77
2023/09/28 05:30:36;;;;;;;27.35;4.30;;;15.70;99.90;;;;;;4881830;29;20100;-77
2023/09/28 05:33:02;;;;;;;24.05;4.10;;;17.00;99.90;;;;;;4881406;29;20048;-77
2023/09/28 05:35:28;;;;;;;19.95;3.88;;;;;;;;;;4899709;29;20131;-77
2023/09/28 05:37:54;;;;;;;26.17;3.80;;;;;;;;;;4881713;29;20409;-77
2023/09/28 05:40:20;;;;;;;26.48;4.38;;;17.40;99.90;;;;;;4881885;29;20092;-77
2023/09/28 05:42:45;;;;;;;21.08;4.60;;;16.10;99.90;;;;;;4881422;29;20056;-77
2023/09/28 05:45:12;;;;;;;16.83;3.30;;;;;;;;;;4866281;29;20085;-77
2023/09/28 05:47:39;;;;;;;17.88;3.40;;;;;;;;;;4881461;29;20092;-77
2023/09/28 05:50:05;;;;;;;33.55;4.75;;;17.40;99.90;;;;;;4881549;29;20048;-77
2023/09/28 05:52:31;;;;;;;22.20;4.40;;;16.80;99.90;;;;;;4881700;29;20440;-77
2023/09/28 05:54:58;;;;;;;24.55;4.25;;;;;;;;;;4881637;29;20151;-77
2023/09/28 05:57:24;;;;;;;25.27;4.07;;;;;;;;;;4882336;29;20048;-76
2023/09/28 05:59:50;;;;;;;22.02;3.90;;;17.60;99.90;;;;;;4882814;29;20080;-77
2023/09/28 06:02:16;;;;;;;22.45;3.92;;;;;;;;;;4881952;29;20068;-71
2023/09/28 06:04:42;;;;;;;26.75;4.00;;;17.30;99.90;;;;;;4881392;29;20052;-71
2023/09/28 06:07:11;;;;;;;15.73;3.40;;;16.70;99.90;;;;;;4881336;29;20166;-70
2023/09/28 06:09:38;;;;;;;25.02;4.00;;;16.60;99.90;;;;;;4881225;29;20426;-70
2023/09/28 06:12:05;;;;;;;27.25;4.13;;;15.80;99.90;;;;;;4881372;29;20051;-70
2023/09/28 06:14:31;;;;;;;30.38;4.05;;;;;;;;;;4881267;29;20053;-70
2023/09/28 06:16:57;;;;;;;28.23;3.60;;;;;;;;;;4897594;29;20052;-71
2023/09/28 06:19:23;;;;;;;30.92;4.97;;;;;;;;;;4865981;29;20159;-69
2023/09/28 06:21:49;;;;;;;23.80;3.30;;;;;;;;;;4865651;29;20041;-70
2023/09/28 06:24:15;;;;;;;22.35;3.83;;;;;;;;;;4881029;29;20084;-70
2023/09/28 06:26:41;;;;;;;22.95;4.20;;;17.30;99.90;;;;;;4881198;29;20127;-70
2023/09/28 06:29:07;;;;;;;23.83;3.83;;;;;;;;;;4900627;29;20470;-70
2023/09/28 06:31:33;;;;;;;27.42;3.90;;;;;;;;;;4885250;29;20047;-70
2023/09/28 06:33:59;;;;;;;23.88;4.15;;;17.20;99.90;;;;;;4884819;29;20568;-71
2023/09/28 06:36:26;;;;;;;26.25;4.53;;;17.10;99.90;;;;;;4869287;29;20049;-70
2023/09/28 06:38:52;;;;;;;21.70;4.43;;;15.90;99.90;;;;;;4885032;29;20119;-70
2023/09/28 06:41:18;;;;;;;28.15;4.43;;;15.60;99.90;;;;;;4884642;29;20132;-71
2023/09/28 06:43:43;;;;;;;29.45;4.50;;;15.70;99.90;;;;;;4884782;29;20048;-71
2023/09/28 06:46:09;;;;;;;27.00;4.38;;;;;;;;;;4884720;29;20131;-71
2023/09/28 06:48:35;;;;;;;25.73;4.35;;;15.70;99.90;;;;;;4884729;29;20055;-71
2023/09/28 06:51:01;;;;;;;25.58;4.45;;;16.90;99.90;;;;;;4884573;29;20041;-70
2023/09/28 06:53:27;;;;;;;26.17;4.35;;;;;;;;;;4884793;29;20047;-71
2023/09/28 06:55:55;;;;;;;23.83;4.47;;;16.30;99.90;;;;;;4868681;29;20055;-71
2023/09/28 06:58:22;;;;;;;33.60;4.60;;;17.80;99.90;;;;;;4884486;29;20056;-71
2023/09/28 07:00:48;;;;;;;24.17;4.05;;;;;;;;;;4884653;29;20049;-70
2023/09/28 07:03:14;;;;;;;28.83;5.07;;;;;;;;;;4869023;29;20052;-71
2023/09/28 07:05:41;;;;;;;29.75;4.25;;;;;;;;;;4884392;29;20064;-71
2023/09/28 07:08:07;;;;;;;21.85;4.07;;;17.30;99.90;;;;;;4884190;29;20056;-77
2023/09/28 07:10:34;;;;;;;27.35;3.95;;;18.00;99.90;;;;;;4884447;29;20048;-76
2023/09/28 07:13:00;;;;;;;26.80;4.07;;;;;;;;;;4901375;29;20069;-77
2023/09/28 07:15:28;;;;;;;25.80;4.13;;;15.80;99.90;;;;;;4884530;29;20083;-77
2023/09/28 07:17:55;;;;;;;35.15;4.40;;;17.80;99.90;;;;;;4868993;29;20131;-77
2023/09/28 07:20:22;;;;;;;29.25;4.40;;;;;;;;;;4884142;29;20592;-75
2023/09/28 07:22:48;;;;;;;26.33;4.38;;;17.70;99.90;;;;;;4883939;29;20040;-77
2023/09/28 07:25:14;;;;;;;26.30;4.30;;;;;;;;;;4884276;29;20127;-76
2023/09/28 07:27:44;;;;;;;31.50;5.10;;;15.90;99.90;;;;;;4883987;29;20041;-76
2023/09/28 07:30:11;;;;;;;25.88;4.40;;;;;;;;;;4868688;29;20087;-77
2023/09/28 07:32:38;;;;;;;27.88;4.88;;;16.20;99.90;;;;;;4884041;29;20044;-76
2023/09/28 07:35:04;;;;;;;28.15;4.72;;;;;;;;;;4868545;29;20054;-76
2023/09/28 07:37:32;;;;;;;33.28;4.40;;;18.20;99.90;;;;;;4883818;29;20055;-77
2023/09/28 07:39:58;;;;;;;21.27;3.42;;;;;;;;;;4884000;29;20145;-70
2023/09/28 07:42:23;;;;;;;25.73;3.95;;;17.00;99.90;;;;;;4883777;29;20108;-70
2023/09/28 07:44:51;;;;;;;27.88;3.85;;;17.60;99.90;;;;;;4852899;29;20076;-71
2023/09/28 07:47:21;;;;;;;26.58;4.03;;;17.60;99.90;;;;;;4883742;29;20096;-71
2023/09/28 07:49:47;;;;;;;32.50;4.43;;;16.70;99.90;;;;;;4883386;29;20053;-70
2023/09/28 07:52:13;;;;;;;24.95;3.83;;;17.70;99.90;;;;;;4868682;29;20053;-71
2023/09/28 07:54:40;;;;;;;23.05;4.25;;;;;;;;;;4900372;29;20049;-70
2023/09/28 07:57:09;;;;;;;26.38;3.85;;;;;;;;;;4900168;29;20080;-71
2023/09/28 07:59:35;;;;;;;19.98;3.67;;;18.60;99.90;;;;;;4900215;29;20096;-70
2023/09/28 08:02:02;;;;;;;28.20;4.57;;;18.60;99.90;;;;;;4883332;29;20083;-70
2023/09/28 08:04:28;;;;;;;26.33;4.22;;;17.90;99.90;;;;;;4883500;29;20394;-70
2023/09/28 08:06:57;;;;;;;23.60;3.63;;;18.60;99.90;;;;;;4883240;29;20111;-70
2023/09/28 08:09:23;;;;;;;24.08;3.72;;;;;;;;;;4883342;29;20044;-71
2023/09/28 08:11:50;;;;;;;28.23;4.68;;;17.10;99.90;;;;;;4867807;29;20063;-71
2023/09/28 08:14:17;;;;;;;29.42;3.90;;;;;;;;;;4883454;29;20091;-70
2023/09/28 08:16:47;;;;;;;28.63;4.32;;;16.70;99.90;;;;;;4883337;29;20045;-70
2023/09/28 08:19:13;;;;;;;21.75;3.50;;;17.90;99.90;;;;;;4882969;29;20045;-70
2023/09/28 08:21:40;;;;;;;25.48;3.85;;;18.50;99.90;;;;;;4883185;29;20050;-70
2023/09/28 08:24:07;;;;;;;23.75;3.70;;;18.50;99.90;;;;;;4883423;29;20059;-70
2023/09/28 08:26:34;;;;;;;19.98;3.60;;;18.10;99.90;;;;;;4868085;29;20516;-71
2023/09/28 08:29:00;;;;;;;22.25;4.20;;;18.00;99.90;;;;;;4868414;29;20048;-71
2023/09/28 08:31:27;;;;;;;25.30;4.57;;;17.70;99.90;;;;;;4883815;29;20100;-69
2023/09/28 08:33:53;;;;;;;23.52;3.42;;;16.70;99.90;;;;;;4883201;29;20091;-70
2023/09/28 08:36:21;;;;;;;27.60;4.45;;;17.30;99.90;;;;;;4882959;29;20044;-70
2023/09/28 08:38:47;;;;;;;26.48;3.80;;;;;;;;;;4879816;29;20048;-70
2023/09/28 08:41:16;;;;;;;25.90;4.10;;;17.80;99.90;;;;;;4895799;29;20082;-70
2023/09/28 08:43:46;;;;;;;26.85;3.80;;;16.70;99.90;;;;;;4880795;29;20081;-71
2023/09/28 08:46:14;;;;;;;24.63;3.33;;;16.70;99.90;;;;;;4881153;29;20063;-74
2023/09/28 08:48:45;;;;;;;20.63;3.90;;;18.10;99.90;;;;;;4897718;29;20044;-76
2023/09/28 08:51:11;;;;;;;25.48;4.75;;;17.80;99.90;;;;;;4870232;29;20055;-77
2023/09/28 08:53:38;;;;;;;30.45;4.65;;;18.90;99.90;;;;;;4895085;29;20152;-75
2023/09/28 08:56:05;;;;;;;30.58;3.85;;;17.70;99.90;;;;;;4895369;29;20065;-78
2023/09/28 08:58:35;;;;;;;20.77;3.90;;;17.70;99.90;;;;;;4882412;29;20520;-76
2023/09/28 09:01:01;;;;;;;24.70;4.35;;;17.00;99.90;;;;;;4882576;29;20123;-77
2023/09/28 09:03:28;;;;;;;24.83;4.82;;;17.10;99.90;;;;;;4882270;29;20489;-77
2023/09/28 09:05:56;;;;;;;32.10;4.25;;;17.20;99.90;;;;;;4866643;29;20080;-77
2023/09/28 09:08:24;;;;;;;28.02;4.80;;;18.20;99.90;;;;;;4866809;29;20119;-77
2023/09/28 09:10:51;;;;;;;27.15;4.20;;;17.50;99.90;;;;;;4882114;29;20128;-70
2023/09/28 09:13:18;;;;;;;21.73;3.88;;;17.80;99.90;;;;;;4866733;29;20048;-71
2023/09/28 09:15:44;;;;;;;29.77;4.65;;;;;;;;;;4881973;29;20040;-70
2023/09/28 09:18:20;;;;;;;29.20;5.13;;;17.50;99.90;;;;;;4881732;29;20497;-70
2023/09/28 09:20:49;;;;;;;27.25;4.32;;;18.30;99.90;;;;;;4866350;29;20059;-70
2023/09/28 09:23:16;;;;;;;23.65;4.63;;;18.70;99.90;;;;;;4881882;29;20047;-70
2023/09/28 09:25:53;;;;;;;21.40;3.80;;;17.60;99.90;;;;;;4881787;29;20125;-71
2023/09/28 09:28:33;;;;;;;29.83;4.38;;;18.20;99.90;;;;;;4881669;29;20052;-71
2023/09/28 09:31:00;;;;;;;26.95;3.78;;;18.30;99.90;;;;;;4881616;29;20044;-71
2023/09/28 09:33:27;;;;;;;20.73;4.57;;;18.20;99.90;;;;;;4881715;29;20048;-70
2023/09/28 09:35:53;;;;;;;22.30;3.63;;;18.90;99.90;;;;;;4881534;29;20458;-71
2023/09/28 09:38:23;;;;;;;22.38;3.58;;;19.00;99.90;;;;;;4881569;29;20485;-71
2023/09/28 09:41:08;;;;;;;20.52;3.88;;;18.30;99.90;;;;;;4881779;29;20084;-70
2023/09/28 09:43:35;;;;;;;21.00;3.53;;;18.40;99.90;;;;;;4881517;29;20055;-70
2023/09/28 09:46:09;;;;;;;25.50;4.05;;;17.50;99.90;;;;;;4881437;29;20052;-71
2023/09/28 09:48:43;;;;;;;24.60;3.63;;;17.30;99.90;;;;;;4881329;29;20052;-70
2023/09/28 09:51:15;;;;;;;18.33;3.30;;;17.50;99.90;;;;;;4881386;29;20072;-71
2023/09/28 09:53:44;;;;;;;;;;;18.60;99.90;;;;;;4882028;29;20100;-71
2023/09/28 09:56:12;;;;;;;25.15;3.55;;;19.10;99.90;;;;;;4881272;29;19923;-71
2023/09/28 09:58:47;;;;;;;23.90;4.32;;;18.50;99.90;;;;;;4881577;29;20041;-71
2023/09/28 10:01:17;;;;;;;17.42;3.35;;;18.80;99.90;;;;;;4881536;29;20048;-72
2023/09/28 10:03:43;;;;;;;17.25;3.20;;;;;;;;;;4880508;29;20048;-71
2023/09/28 10:06:10;;;;;;;18.77;4.03;;;19.30;99.90;;;;;;4881558;29;20063;-71
2023/09/28 10:08:37;;;;;;;21.77;4.32;;;19.20;99.90;;;;;;4881209;29;20449;-71
2023/09/28 10:11:04;;;;;;;19.80;3.97;;;17.30;99.90;;;;;;4881216;29;20057;-71
2023/09/28 10:13:31;;;;;;;22.83;4.45;;;18.60;99.90;;;;;;4881444;29;20080;-70
2023/09/28 10:16:01;;;;;;;21.05;3.92;;;19.10;99.90;;;;;;4880740;29;20053;-71
2023/09/28 10:18:29;;;;;;;21.40;3.42;;;18.70;99.90;;;;;;4880923;29;20059;-70
2023/09/28 10:20:56;;;;;;;28.85;3.97;;;18.60;99.90;;;;;;4880995;29;20084;-70
2023/09/28 10:23:25;;;;;;;17.90;3.00;;;18.10;99.90;;;;;;4881035;29;20055;-71
2023/09/28 10:25:57;;;;;;;27.95;4.10;;;17.80;99.90;;;;;;4881219;29;20049;-71
2023/09/28 10:28:22;;;;;;;;;;;18.70;99.90;;;;;;4881312;29;20064;-70
2023/09/28 10:31:10;;;;;;;17.63;3.38;;;19.50;99.90;;;;;;4881047;29;19919;-76
2023/09/28 10:34:02;;;;;;;23.13;4.18;;;18.60;99.90;;;;;;4881014;29;20059;-77
2023/09/28 10:36:30;;;;;;;17.40;3.00;;;;;;;;;;4865647;29;20084;-78
2023/09/28 10:39:15;;;;;;;19.65;3.63;;;18.60;99.90;;;;;;4897899;29;20044;-78
2023/09/28 10:41:49;;;;;;;16.95;3.33;;;19.50;99.90;;;;;;4881422;29;20040;-78
2023/09/28 10:44:21;;;;;;;20.65;3.50;;;19.00;99.90;;;;;;4897668;29;20527;-77
2023/09/28 10:46:49;;;;;;;16.17;3.20;;;19.70;99.90;;;;;;4865702;29;20127;-77
2023/09/28 10:49:23;;;;;;;18.02;3.38;;;19.50;99.90;;;;;;4881253;29;20084;-77
2023/09/28 10:51:49;;;;;;;23.60;3.70;;;;;;;;;;4880842;29;20053;-77
2023/09/28 10:54:15;;;;;;;26.73;4.28;;;19.80;99.90;;;;;;4865730;29;20040;-76
2023/09/28 10:56:41;;;;;;;21.17;4.05;;;20.00;99.90;;;;;;4880875;29;20154;-77
2023/09/28 10:59:09;;;;;;;20.42;3.30;;;19.30;99.90;;;;;;4865708;29;20123;-77
2023/09/28 11:01:45;;;;;;;22.95;6.00;;;19.60;99.90;;;;;;4865261;29;20044;-77
2023/09/28 11:04:12;;;;;;;23.58;4.55;;;19.20;99.90;;;;;;4881031;29;20048;-71
2023/09/28 11:06:39;;;;;;;24.42;3.72;;;18.30;99.90;;;;;;4880985;29;20048;-71
2023/09/28 11:09:08;;;;;;;25.40;4.15;;;19.50;99.90;;;;;;4834958;29;20044;-71
2023/09/28 11:11:34;;;;;;;16.92;3.38;;;18.20;99.90;;;;;;4865423;29;20131;-71
2023/09/28 11:14:00;;;;;;;18.45;3.00;;;;;;;;;;4851024;29;20282;-71
2023/09/28 11:16:26;;;;;;;15.43;2.95;;;18.50;99.90;;;;;;4884159;29;20045;-71
2023/09/28 11:18:54;;;;;;;19.58;3.28;;;19.80;99.90;;;;;;4883930;29;20052;-71
2023/09/28 11:21:21;;;;;;;15.68;2.97;;;17.70;99.90;;;;;;4868870;29;20048;-71
2023/09/28 11:23:48;;;;;;;15.77;2.80;;;;;;;;;;4884117;29;20040;-71
2023/09/28 11:26:14;;;;;;;14.52;2.97;;;20.10;99.90;;;;;;4883874;29;20056;-72
2023/09/28 11:28:40;;;;;;;19.48;3.22;;;19.40;99.90;;;;;;4868358;29;20080;-70
2023/09/28 11:31:09;;;;;;;15.23;3.15;;;20.30;99.90;;;;;;4868324;29;20059;-70
2023/09/28 11:33:43;;;;;;;12.70;2.92;;;19.40;99.90;;;;;;4868585;29;20081;-70
2023/09/28 11:36:14;;;;;;;19.00;2.90;;;20.30;99.90;;;;;;4883586;29;20091;-70
2023/09/28 11:38:40;;;;;;;20.37;2.60;;;20.10;99.90;;;;;;4900718;29;20446;-70
2023/09/28 11:41:06;;;;;;;18.38;3.20;;;18.60;99.90;;;;;;4884059;29;20288;-70
2023/09/28 11:43:34;;;;;;;22.95;3.90;;;19.90;99.90;;;;;;4883845;29;20048;-70
2023/09/28 11:46:01;;;;;;;21.90;3.75;;;20.30;99.90;;;;;;4884056;29;20056;-78
2023/09/28 11:48:27;;;;;;;17.83;3.25;;;20.40;99.90;;;;;;4884097;29;20041;-77
2023/09/28 11:50:53;;;;;;;20.30;3.58;;;19.50;99.90;;;;;;4868282;29;20386;-77
2023/09/28 11:53:18;;;;;;;18.08;3.15;;;20.50;99.90;;;;;;4900852;29;20473;-77
2023/09/28 11:55:46;;;;;;;19.27;3.40;;;19.60;99.90;;;;;;4868541;29;20093;-77
2023/09/28 11:58:17;;;;;;;15.75;3.20;;;20.00;99.90;;;;;;4883925;29;20041;-76
2023/09/28 12:00:43;;;;;;;19.83;3.75;;;19.40;99.90;;;;;;4912794;29;20121;-75
2023/09/28 12:03:09;;;;;;;18.73;3.20;;;;;;;;;;4896774;29;20044;-75
2023/09/28 12:05:35;;;;;;;18.02;3.30;;;18.40;99.90;;;;;;4897637;29;20053;-76
2023/09/28 12:08:01;;;;;;;18.85;3.17;;;20.10;99.90;;;;;;4884604;29;20108;-75
2023/09/28 12:10:27;;;;;;;20.90;3.40;;;;;;;;;;4898819;29;20203;-76
2023/09/28 12:12:55;;;;;;;19.77;4.03;;;;;;;;;;4891204;29;20409;-77
2023/09/28 12:15:21;;;;;;;19.77;3.50;;;19.80;99.90;;;;;;4883412;29;20408;-77
2023/09/28 12:17:46;;;;;;;21.30;3.35;;;20.00;99.90;;;;;;4882886;29;20068;-70
2023/09/28 12:20:12;;;;;;;19.33;2.97;;;20.20;99.90;;;;;;4883323;29;20044;-70
2023/09/28 12:22:42;;;;;;;25.13;4.25;;;20.30;99.90;;;;;;4868175;29;20056;-71
2023/09/28 12:25:10;;;;;;;18.30;3.30;;;18.60;99.90;;;;;;4882674;29;20078;-71
2023/09/28 12:27:36;;;;;;;18.30;3.67;;;20.40;99.90;;;;;;4882654;29;20485;-70
2023/09/28 12:30:03;;;;;;;24.80;3.78;;;20.40;99.90;;;;;;4882867;29;20147;-70
2023/09/28 12:32:29;;;;;;;20.67;3.15;;;19.00;99.90;;;;;;4882754;29;20056;-72
2023/09/28 12:35:00;;;;;;;15.18;2.78;;;19.50;99.90;;;;;;4867322;29;20055;-70
2023/09/28 12:37:26;;;;;;;18.48;3.95;;;20.40;99.90;;;;;;4899354;29;20059;-71
2023/09/28 12:39:53;;;;;;;23.17;4.13;;;18.80;99.90;;;;;;4882671;29;20048;-78
2023/09/28 12:42:25;;;;;;;16.77;3.40;;;19.60;99.20;;;;;;4882941;29;20048;-77
2023/09/28 12:44:51;;;;;;;17.00;3.10;;;20.40;99.90;;;;;;4866994;29;20049;-77
2023/09/28 12:47:21;;;;;;;17.85;3.50;;;19.80;99.90;;;;;;4882511;29;20051;-77
2023/09/28 12:49:47;;;;;;;17.13;3.22;;;18.40;99.90;;;;;;4882548;29;20548;-78
2023/09/28 12:52:14;;;;;;;19.98;3.03;;;19.80;99.90;;;;;;4882664;29;20112;-77
2023/09/28 12:54:39;;;;;;;19.63;3.35;;;19.30;99.90;;;;;;4867252;29;20056;-78
2023/09/28 12:57:07;;;;;;;18.65;3.28;;;;;;;;;;4867004;29;20081;-77
2023/09/28 12:59:34;;;;;;;15.68;3.30;;;;;;;;;;4882756;29;20048;-77
2023/09/28 13:02:02;;;;;;;16.98;3.22;;;19.90;99.90;;;;;;4882341;29;20048;-77
2023/09/28 13:04:28;;;;;;;16.73;2.85;;;;;;;;;;4882383;29;20084;-77
2023/09/28 13:06:55;;;;;;;15.27;3.13;;;;;;;;;;4882227;29;20525;-78
2023/09/28 13:09:22;;;;;;;19.25;3.90;;;;;;;;;;4882529;29;20080;-77